sensor_id;sensor_type;location;lat;lon;timestamp;P1;durP1;ratioP1;P2;durP2;ratioP2
32639;SDS011;19049;52.524;11.468;2022-12-26T00:01:28;3.93;;;3.47;;
32639;SDS011;19049;52.524;11.468;2022-12-26T00:03:54;4.07;;;3.17;;
32639;SDS011;19049;52.524;11.468;2022-12-26T00:06:21;5.80;;;3.33;;
32639;SDS011;19049;52.524;11.468;2022-12-26T00:08:48;3.17;;;2.43;;
32639;SDS011;19049;52.524;11.468;2022-12-26T00:11:15;5.57;;;2.67;;
32639;SDS011;19049;52.524;11.468;2022-12-26T00:13:41;3.83;;;2.63;;
32639;SDS011;19049;52.524;11.468;2022-12-26T00:16:09;3.43;;;2.60;;
32639;SDS011;19049;52.524;11.468;2022-12-26T00:18:40;5.53;;;2.83;;
32639;SDS011;19049;52.524;11.468;2022-12-26T00:21:06;3.13;;;2.50;;
32639;SDS011;19049;52.524;11.468;2022-12-26T00:23:34;4.50;;;2.37;;
32639;SDS011;19049;52.524;11.468;2022-12-26T00:26:03;2.60;;;2.40;;
32639;SDS011;19049;52.524;11.468;2022-12-26T00:28:34;3.07;;;2.53;;
32639;SDS011;19049;52.524;11.468;2022-12-26T00:31:04;2.93;;;2.30;;
32639;SDS011;19049;52.524;11.468;2022-12-26T00:33:30;2.67;;;2.40;;
32639;SDS011;19049;52.524;11.468;2022-12-26T00:36:09;2.93;;;2.60;;
32639;SDS011;19049;52.524;11.468;2022-12-26T00:38:40;3.03;;;2.60;;
32639;SDS011;19049;52.524;11.468;2022-12-26T00:41:07;4.17;;;2.70;;
32639;SDS011;19049;52.524;11.468;2022-12-26T00:43:34;3.00;;;2.70;;
32639;SDS011;19049;52.524;11.468;2022-12-26T00:46:00;3.13;;;2.83;;
32639;SDS011;19049;52.524;11.468;2022-12-26T00:48:27;4.10;;;2.57;;
32639;SDS011;19049;52.524;11.468;2022-12-26T00:50:53;5.00;;;3.03;;
32639;SDS011;19049;52.524;11.468;2022-12-26T00:53:19;2.30;;;2.10;;
32639;SDS011;19049;52.524;11.468;2022-12-26T00:55:45;3.30;;;2.37;;
32639;SDS011;19049;52.524;11.468;2022-12-26T00:58:11;2.67;;;2.40;;
32639;SDS011;19049;52.524;11.468;2022-12-26T01:00:37;3.10;;;2.50;;
32639;SDS011;19049;52.524;11.468;2022-12-26T01:03:05;3.80;;;2.60;;
32639;SDS011;19049;52.524;11.468;2022-12-26T01:05:31;2.73;;;2.20;;
32639;SDS011;19049;52.524;11.468;2022-12-26T01:07:57;2.77;;;2.03;;
32639;SDS011;19049;52.524;11.468;2022-12-26T01:10:23;4.23;;;3.10;;
32639;SDS011;19049;52.524;11.468;2022-12-26T01:12:48;4.07;;;2.47;;
32639;SDS011;19049;52.524;11.468;2022-12-26T01:15:14;2.83;;;2.20;;
32639;SDS011;19049;52.524;11.468;2022-12-26T01:17:39;4.30;;;2.60;;
32639;SDS011;19049;52.524;11.468;2022-12-26T01:20:05;3.23;;;2.60;;
32639;SDS011;19049;52.524;11.468;2022-12-26T01:22:31;3.27;;;2.97;;
32639;SDS011;19049;52.524;11.468;2022-12-26T01:24:56;4.03;;;2.97;;
32639;SDS011;19049;52.524;11.468;2022-12-26T01:27:22;3.40;;;2.83;;
32639;SDS011;19049;52.524;11.468;2022-12-26T01:29:49;7.77;;;3.90;;
32639;SDS011;19049;52.524;11.468;2022-12-26T01:32:15;4.00;;;3.20;;
32639;SDS011;19049;52.524;11.468;2022-12-26T01:34:41;4.90;;;3.77;;
32639;SDS011;19049;52.524;11.468;2022-12-26T01:37:07;3.97;;;3.57;;
32639;SDS011;19049;52.524;11.468;2022-12-26T01:39:34;4.97;;;3.00;;
32639;SDS011;19049;52.524;11.468;2022-12-26T01:42:00;4.10;;;3.27;;
32639;SDS011;19049;52.524;11.468;2022-12-26T01:47:42;4.30;;;3.17;;
32639;SDS011;19049;52.524;11.468;2022-12-26T01:50:55;4.53;;;3.27;;
32639;SDS011;19049;52.524;11.468;2022-12-26T01:53:49;3.33;;;2.83;;
32639;SDS011;19049;52.524;11.468;2022-12-26T01:56:00;5.20;;;2.70;;
32639;SDS011;19049;52.524;11.468;2022-12-26T01:58:33;3.40;;;2.80;;
32639;SDS011;19049;52.524;11.468;2022-12-26T02:01:03;4.03;;;2.93;;
32639;SDS011;19049;52.524;11.468;2022-12-26T02:03:30;3.83;;;2.90;;
32639;SDS011;19049;52.524;11.468;2022-12-26T02:06:15;4.10;;;3.70;;
32639;SDS011;19049;52.524;11.468;2022-12-26T02:08:41;4.20;;;3.80;;
32639;SDS011;19049;52.524;11.468;2022-12-26T02:11:13;4.03;;;3.30;;
32639;SDS011;19049;52.524;11.468;2022-12-26T02:13:45;4.33;;;3.27;;
32639;SDS011;19049;52.524;11.468;2022-12-26T02:16:12;3.53;;;3.07;;
32639;SDS011;19049;52.524;11.468;2022-12-26T02:18:39;3.97;;;3.03;;
32639;SDS011;19049;52.524;11.468;2022-12-26T02:21:28;4.77;;;3.23;;
32639;SDS011;19049;52.524;11.468;2022-12-26T02:26:38;5.90;;;3.63;;
32639;SDS011;19049;52.524;11.468;2022-12-26T02:32:15;4.33;;;3.73;;
32639;SDS011;19049;52.524;11.468;2022-12-26T02:45:32;4.83;;;3.60;;
32639;SDS011;19049;52.524;11.468;2022-12-26T02:51:53;4.20;;;3.80;;
32639;SDS011;19049;52.524;11.468;2022-12-26T02:57:42;5.03;;;3.60;;
32639;SDS011;19049;52.524;11.468;2022-12-26T03:00:34;3.97;;;3.27;;
32639;SDS011;19049;52.524;11.468;2022-12-26T03:03:22;3.63;;;3.20;;
32639;SDS011;19049;52.524;11.468;2022-12-26T03:09:23;3.97;;;3.40;;
32639;SDS011;19049;52.524;11.468;2022-12-26T03:15:06;3.80;;;2.93;;
32639;SDS011;19049;52.524;11.468;2022-12-26T03:17:46;3.23;;;2.77;;
32639;SDS011;19049;52.524;11.468;2022-12-26T03:20:17;4.07;;;3.00;;
32639;SDS011;19049;52.524;11.468;2022-12-26T03:22:47;3.07;;;2.77;;
32639;SDS011;19049;52.524;11.468;2022-12-26T03:25:18;2.77;;;2.47;;
32639;SDS011;19049;52.524;11.468;2022-12-26T03:28:19;2.83;;;2.63;;
32639;SDS011;19049;52.524;11.468;2022-12-26T03:30:46;4.13;;;2.83;;
32639;SDS011;19049;52.524;11.468;2022-12-26T03:33:18;3.37;;;2.80;;
32639;SDS011;19049;52.524;11.468;2022-12-26T03:36:06;2.60;;;2.40;;
32639;SDS011;19049;52.524;11.468;2022-12-26T03:38:45;2.57;;;2.27;;
32639;SDS011;19049;52.524;11.468;2022-12-26T03:44:52;2.30;;;2.10;;
32639;SDS011;19049;52.524;11.468;2022-12-26T03:50:42;2.67;;;2.20;;
32639;SDS011;19049;52.524;11.468;2022-12-26T03:53:36;2.40;;;2.10;;
32639;SDS011;19049;52.524;11.468;2022-12-26T03:59:27;3.17;;;2.57;;
32639;SDS011;19049;52.524;11.468;2022-12-26T04:02:16;3.33;;;2.67;;
32639;SDS011;19049;52.524;11.468;2022-12-26T04:05:03;5.13;;;2.97;;
32639;SDS011;19049;52.524;11.468;2022-12-26T04:07:51;3.87;;;2.80;;
32639;SDS011;19049;52.524;11.468;2022-12-26T04:11:15;3.60;;;2.80;;
32639;SDS011;19049;52.524;11.468;2022-12-26T04:13:57;3.97;;;3.53;;
32639;SDS011;19049;52.524;11.468;2022-12-26T04:16:52;3.87;;;3.40;;
32639;SDS011;19049;52.524;11.468;2022-12-26T04:19:53;3.73;;;3.23;;
32639;SDS011;19049;52.524;11.468;2022-12-26T04:25:27;4.17;;;3.17;;
32639;SDS011;19049;52.524;11.468;2022-12-26T04:28:16;4.57;;;3.90;;
32639;SDS011;19049;52.524;11.468;2022-12-26T04:31:06;4.90;;;3.57;;
32639;SDS011;19049;52.524;11.468;2022-12-26T04:34:06;4.20;;;3.37;;
32639;SDS011;19049;52.524;11.468;2022-12-26T04:36:58;4.00;;;3.63;;
32639;SDS011;19049;52.524;11.468;2022-12-26T04:39:47;4.30;;;3.90;;
32639;SDS011;19049;52.524;11.468;2022-12-26T04:42:34;4.33;;;3.93;;
32639;SDS011;19049;52.524;11.468;2022-12-26T04:45:19;4.00;;;3.60;;
32639;SDS011;19049;52.524;11.468;2022-12-26T04:47:46;4.47;;;4.07;;
32639;SDS011;19049;52.524;11.468;2022-12-26T04:50:33;4.17;;;3.77;;
32639;SDS011;19049;52.524;11.468;2022-12-26T04:52:58;3.87;;;3.50;;
32639;SDS011;19049;52.524;11.468;2022-12-26T04:55:25;4.17;;;3.60;;
32639;SDS011;19049;52.524;11.468;2022-12-26T04:57:55;3.97;;;3.50;;
32639;SDS011;19049;52.524;11.468;2022-12-26T05:00:22;3.50;;;3.07;;
32639;SDS011;19049;52.524;11.468;2022-12-26T05:02:49;4.73;;;3.30;;
32639;SDS011;19049;52.524;11.468;2022-12-26T05:05:36;6.53;;;4.10;;
32639;SDS011;19049;52.524;11.468;2022-12-26T05:08:26;4.63;;;4.13;;
32639;SDS011;19049;52.524;11.468;2022-12-26T05:11:15;4.17;;;3.77;;
32639;SDS011;19049;52.524;11.468;2022-12-26T05:13:41;3.83;;;3.43;;
32639;SDS011;19049;52.524;11.468;2022-12-26T05:16:06;4.13;;;3.60;;
32639;SDS011;19049;52.524;11.468;2022-12-26T05:18:50;4.60;;;4.20;;
32639;SDS011;19049;52.524;11.468;2022-12-26T05:21:35;4.30;;;3.50;;
32639;SDS011;19049;52.524;11.468;2022-12-26T05:24:19;4.30;;;3.87;;
32639;SDS011;19049;52.524;11.468;2022-12-26T05:27:03;4.17;;;3.60;;
32639;SDS011;19049;52.524;11.468;2022-12-26T05:29:47;4.27;;;3.63;;
32639;SDS011;19049;52.524;11.468;2022-12-26T05:32:13;3.83;;;3.27;;
32639;SDS011;19049;52.524;11.468;2022-12-26T05:34:48;3.90;;;3.20;;
32639;SDS011;19049;52.524;11.468;2022-12-26T05:37:14;3.63;;;2.97;;
32639;SDS011;19049;52.524;11.468;2022-12-26T05:39:39;4.30;;;3.90;;
32639;SDS011;19049;52.524;11.468;2022-12-26T05:42:05;3.77;;;3.20;;
32639;SDS011;19049;52.524;11.468;2022-12-26T05:44:30;3.57;;;2.77;;
32639;SDS011;19049;52.524;11.468;2022-12-26T05:46:56;3.10;;;2.80;;
32639;SDS011;19049;52.524;11.468;2022-12-26T05:49:21;3.20;;;2.70;;
32639;SDS011;19049;52.524;11.468;2022-12-26T05:51:47;3.37;;;2.97;;
32639;SDS011;19049;52.524;11.468;2022-12-26T05:54:14;3.43;;;2.87;;
32639;SDS011;19049;52.524;11.468;2022-12-26T05:56:40;2.90;;;2.57;;
32639;SDS011;19049;52.524;11.468;2022-12-26T05:59:05;3.10;;;2.80;;
32639;SDS011;19049;52.524;11.468;2022-12-26T06:01:31;3.10;;;2.63;;
32639;SDS011;19049;52.524;11.468;2022-12-26T06:03:57;3.80;;;2.73;;
32639;SDS011;19049;52.524;11.468;2022-12-26T06:06:24;3.33;;;2.60;;
32639;SDS011;19049;52.524;11.468;2022-12-26T06:08:50;2.80;;;2.50;;
32639;SDS011;19049;52.524;11.468;2022-12-26T06:11:17;4.83;;;2.53;;
32639;SDS011;19049;52.524;11.468;2022-12-26T06:13:44;2.77;;;2.57;;
32639;SDS011;19049;52.524;11.468;2022-12-26T06:16:11;4.27;;;2.80;;
32639;SDS011;19049;52.524;11.468;2022-12-26T06:18:38;3.23;;;2.93;;
32639;SDS011;19049;52.524;11.468;2022-12-26T06:21:05;3.27;;;2.80;;
32639;SDS011;19049;52.524;11.468;2022-12-26T06:23:35;3.33;;;3.03;;
32639;SDS011;19049;52.524;11.468;2022-12-26T06:26:02;3.23;;;2.93;;
32639;SDS011;19049;52.524;11.468;2022-12-26T06:28:28;4.30;;;3.13;;
32639;SDS011;19049;52.524;11.468;2022-12-26T06:30:59;3.87;;;2.90;;
32639;SDS011;19049;52.524;11.468;2022-12-26T06:33:30;4.50;;;4.00;;
32639;SDS011;19049;52.524;11.468;2022-12-26T06:36:01;6.37;;;5.77;;
32639;SDS011;19049;52.524;11.468;2022-12-26T06:38:27;8.23;;;7.27;;
32639;SDS011;19049;52.524;11.468;2022-12-26T06:40:53;5.33;;;4.83;;
32639;SDS011;19049;52.524;11.468;2022-12-26T06:43:18;5.70;;;5.00;;
32639;SDS011;19049;52.524;11.468;2022-12-26T06:45:52;6.03;;;4.63;;
32639;SDS011;19049;52.524;11.468;2022-12-26T06:48:19;5.13;;;4.63;;
32639;SDS011;19049;52.524;11.468;2022-12-26T06:50:45;4.43;;;3.87;;
32639;SDS011;19049;52.524;11.468;2022-12-26T06:53:11;4.00;;;3.50;;
32639;SDS011;19049;52.524;11.468;2022-12-26T06:55:36;5.10;;;4.57;;
32639;SDS011;19049;52.524;11.468;2022-12-26T06:58:02;4.37;;;3.97;;
32639;SDS011;19049;52.524;11.468;2022-12-26T07:00:27;4.80;;;4.30;;
32639;SDS011;19049;52.524;11.468;2022-12-26T07:02:54;4.50;;;4.07;;
32639;SDS011;19049;52.524;11.468;2022-12-26T07:05:19;3.83;;;3.43;;
32639;SDS011;19049;52.524;11.468;2022-12-26T07:07:49;3.80;;;3.40;;
32639;SDS011;19049;52.524;11.468;2022-12-26T07:10:16;5.20;;;3.90;;
32639;SDS011;19049;52.524;11.468;2022-12-26T07:12:42;4.17;;;3.77;;
32639;SDS011;19049;52.524;11.468;2022-12-26T07:15:08;5.90;;;5.13;;
32639;SDS011;19049;52.524;11.468;2022-12-26T07:17:34;4.43;;;3.70;;
32639;SDS011;19049;52.524;11.468;2022-12-26T07:20:01;5.83;;;5.20;;
32639;SDS011;19049;52.524;11.468;2022-12-26T07:22:27;5.33;;;4.27;;
32639;SDS011;19049;52.524;11.468;2022-12-26T07:24:53;4.17;;;3.77;;
32639;SDS011;19049;52.524;11.468;2022-12-26T07:27:19;5.17;;;4.53;;
32639;SDS011;19049;52.524;11.468;2022-12-26T07:29:45;5.87;;;4.50;;
32639;SDS011;19049;52.524;11.468;2022-12-26T07:32:11;4.43;;;4.03;;
32639;SDS011;19049;52.524;11.468;2022-12-26T07:34:37;5.03;;;4.53;;
32639;SDS011;19049;52.524;11.468;2022-12-26T07:37:02;6.13;;;4.90;;
32639;SDS011;19049;52.524;11.468;2022-12-26T07:39:28;4.90;;;4.40;;
32639;SDS011;19049;52.524;11.468;2022-12-26T07:41:54;5.57;;;4.13;;
32639;SDS011;19049;52.524;11.468;2022-12-26T07:44:22;4.73;;;4.23;;
32639;SDS011;19049;52.524;11.468;2022-12-26T07:46:49;4.27;;;3.87;;
32639;SDS011;19049;52.524;11.468;2022-12-26T07:49:14;4.40;;;3.80;;
32639;SDS011;19049;52.524;11.468;2022-12-26T07:51:40;6.07;;;5.13;;
32639;SDS011;19049;52.524;11.468;2022-12-26T07:54:06;5.23;;;4.70;;
32639;SDS011;19049;52.524;11.468;2022-12-26T07:56:32;6.70;;;5.17;;
32639;SDS011;19049;52.524;11.468;2022-12-26T07:58:58;6.43;;;5.13;;
32639;SDS011;19049;52.524;11.468;2022-12-26T08:01:24;5.93;;;4.57;;
32639;SDS011;19049;52.524;11.468;2022-12-26T08:03:50;6.00;;;4.93;;
32639;SDS011;19049;52.524;11.468;2022-12-26T08:06:19;7.47;;;6.30;;
32639;SDS011;19049;52.524;11.468;2022-12-26T08:08:45;7.80;;;6.67;;
32639;SDS011;19049;52.524;11.468;2022-12-26T08:11:15;6.43;;;5.77;;
32639;SDS011;19049;52.524;11.468;2022-12-26T08:13:42;8.83;;;6.53;;
32639;SDS011;19049;52.524;11.468;2022-12-26T08:16:10;8.27;;;6.17;;
32639;SDS011;19049;52.524;11.468;2022-12-26T08:18:37;8.20;;;7.13;;
32639;SDS011;19049;52.524;11.468;2022-12-26T08:21:03;8.17;;;7.23;;
32639;SDS011;19049;52.524;11.468;2022-12-26T08:23:28;6.80;;;6.10;;
32639;SDS011;19049;52.524;11.468;2022-12-26T08:25:54;8.07;;;6.97;;
32639;SDS011;19049;52.524;11.468;2022-12-26T08:35:15;6.30;;;5.43;;
32639;SDS011;19049;52.524;11.468;2022-12-26T08:44:02;7.07;;;6.00;;
32639;SDS011;19049;52.524;11.468;2022-12-26T08:46:44;8.20;;;6.03;;
32639;SDS011;19049;52.524;11.468;2022-12-26T08:56:36;6.73;;;5.40;;
32639;SDS011;19049;52.524;11.468;2022-12-26T08:59:02;7.70;;;5.47;;
32639;SDS011;19049;52.524;11.468;2022-12-26T09:01:29;7.10;;;5.00;;
32639;SDS011;19049;52.524;11.468;2022-12-26T09:03:58;6.10;;;4.97;;
32639;SDS011;19049;52.524;11.468;2022-12-26T09:06:25;5.57;;;4.60;;
32639;SDS011;19049;52.524;11.468;2022-12-26T09:08:51;5.73;;;4.60;;
32639;SDS011;19049;52.524;11.468;2022-12-26T09:11:21;5.10;;;4.20;;
32639;SDS011;19049;52.524;11.468;2022-12-26T09:13:50;5.10;;;3.87;;
32639;SDS011;19049;52.524;11.468;2022-12-26T09:16:18;5.37;;;4.10;;
32639;SDS011;19049;52.524;11.468;2022-12-26T09:18:45;3.83;;;3.40;;
32639;SDS011;19049;52.524;11.468;2022-12-26T09:21:13;4.77;;;4.13;;
32639;SDS011;19049;52.524;11.468;2022-12-26T09:23:40;5.17;;;4.23;;
32639;SDS011;19049;52.524;11.468;2022-12-26T09:26:16;4.30;;;3.90;;
32639;SDS011;19049;52.524;11.468;2022-12-26T09:28:43;4.80;;;3.93;;
32639;SDS011;19049;52.524;11.468;2022-12-26T09:31:12;5.13;;;3.77;;
32639;SDS011;19049;52.524;11.468;2022-12-26T09:33:42;3.50;;;3.00;;
32639;SDS011;19049;52.524;11.468;2022-12-26T09:36:09;3.93;;;3.43;;
32639;SDS011;19049;52.524;11.468;2022-12-26T09:38:36;3.57;;;3.03;;
32639;SDS011;19049;52.524;11.468;2022-12-26T09:46:12;3.03;;;2.73;;
32639;SDS011;19049;52.524;11.468;2022-12-26T09:48:55;3.77;;;3.10;;
32639;SDS011;19049;52.524;11.468;2022-12-26T09:51:24;2.83;;;2.53;;
32639;SDS011;19049;52.524;11.468;2022-12-26T09:53:51;2.83;;;2.53;;
32639;SDS011;19049;52.524;11.468;2022-12-26T09:56:18;3.30;;;3.00;;
32639;SDS011;19049;52.524;11.468;2022-12-26T09:58:55;3.03;;;2.60;;
32639;SDS011;19049;52.524;11.468;2022-12-26T10:01:29;3.13;;;2.60;;
32639;SDS011;19049;52.524;11.468;2022-12-26T10:03:58;3.10;;;2.40;;
32639;SDS011;19049;52.524;11.468;2022-12-26T10:06:26;3.40;;;2.47;;
32639;SDS011;19049;52.524;11.468;2022-12-26T10:19:32;3.07;;;2.70;;
32639;SDS011;19049;52.524;11.468;2022-12-26T10:25:27;3.00;;;2.70;;
32639;SDS011;19049;52.524;11.468;2022-12-26T10:28:00;3.33;;;2.93;;
32639;SDS011;19049;52.524;11.468;2022-12-26T10:30:31;3.40;;;2.77;;
32639;SDS011;19049;52.524;11.468;2022-12-26T10:33:03;3.33;;;3.03;;
32639;SDS011;19049;52.524;11.468;2022-12-26T10:35:41;4.27;;;3.60;;
32639;SDS011;19049;52.524;11.468;2022-12-26T10:38:22;4.60;;;3.57;;
32639;SDS011;19049;52.524;11.468;2022-12-26T10:40:53;3.70;;;3.17;;
32639;SDS011;19049;52.524;11.468;2022-12-26T10:43:28;5.43;;;3.37;;
32639;SDS011;19049;52.524;11.468;2022-12-26T10:48:36;4.37;;;3.80;;
32639;SDS011;19049;52.524;11.468;2022-12-26T10:51:01;5.00;;;4.20;;
32639;SDS011;19049;52.524;11.468;2022-12-26T10:53:27;3.27;;;2.93;;
32639;SDS011;19049;52.524;11.468;2022-12-26T10:55:53;4.70;;;3.33;;
32639;SDS011;19049;52.524;11.468;2022-12-26T10:58:32;4.63;;;4.00;;
32639;SDS011;19049;52.524;11.468;2022-12-26T11:03:59;3.87;;;3.47;;
32639;SDS011;19049;52.524;11.468;2022-12-26T11:06:37;4.60;;;3.47;;
32639;SDS011;19049;52.524;11.468;2022-12-26T11:09:05;4.00;;;3.60;;
32639;SDS011;19049;52.524;11.468;2022-12-26T11:11:32;3.43;;;3.13;;
32639;SDS011;19049;52.524;11.468;2022-12-26T11:16:52;3.20;;;2.87;;
32639;SDS011;19049;52.524;11.468;2022-12-26T11:20:07;4.53;;;3.00;;
32639;SDS011;19049;52.524;11.468;2022-12-26T11:27:33;2.80;;;2.60;;
32639;SDS011;19049;52.524;11.468;2022-12-26T11:32:37;3.40;;;3.10;;
32639;SDS011;19049;52.524;11.468;2022-12-26T11:35:04;3.50;;;2.77;;
32639;SDS011;19049;52.524;11.468;2022-12-26T11:37:39;3.37;;;3.07;;
32639;SDS011;19049;52.524;11.468;2022-12-26T11:40:18;3.73;;;3.00;;
32639;SDS011;19049;52.524;11.468;2022-12-26T11:42:47;3.40;;;3.10;;
32639;SDS011;19049;52.524;11.468;2022-12-26T11:45:21;4.03;;;3.43;;
32639;SDS011;19049;52.524;11.468;2022-12-26T11:47:49;3.57;;;3.23;;
32639;SDS011;19049;52.524;11.468;2022-12-26T11:50:17;3.53;;;3.23;;
32639;SDS011;19049;52.524;11.468;2022-12-26T11:55:29;3.43;;;2.97;;
32639;SDS011;19049;52.524;11.468;2022-12-26T12:03:30;3.40;;;3.10;;
32639;SDS011;19049;52.524;11.468;2022-12-26T12:08:45;5.00;;;4.00;;
32639;SDS011;19049;52.524;11.468;2022-12-26T12:17:41;4.10;;;3.67;;
32639;SDS011;19049;52.524;11.468;2022-12-26T12:20:25;4.30;;;3.90;;
32639;SDS011;19049;52.524;11.468;2022-12-26T12:25:31;4.40;;;4.00;;
32639;SDS011;19049;52.524;11.468;2022-12-26T12:31:08;4.00;;;3.60;;
32639;SDS011;19049;52.524;11.468;2022-12-26T12:33:47;4.00;;;3.60;;
32639;SDS011;19049;52.524;11.468;2022-12-26T12:36:28;4.37;;;3.30;;
32639;SDS011;19049;52.524;11.468;2022-12-26T12:39:11;3.60;;;3.30;;
32639;SDS011;19049;52.524;11.468;2022-12-26T12:57:58;4.03;;;3.40;;
32639;SDS011;19049;52.524;11.468;2022-12-26T13:00:32;3.80;;;3.40;;
32639;SDS011;19049;52.524;11.468;2022-12-26T13:06:07;3.60;;;3.30;;
32639;SDS011;19049;52.524;11.468;2022-12-26T13:08:45;3.70;;;3.40;;
32639;SDS011;19049;52.524;11.468;2022-12-26T13:13:46;3.90;;;3.17;;
32639;SDS011;19049;52.524;11.468;2022-12-26T13:16:32;3.50;;;2.63;;
32639;SDS011;19049;52.524;11.468;2022-12-26T13:19:09;2.90;;;2.70;;
32639;SDS011;19049;52.524;11.468;2022-12-26T13:21:47;3.73;;;3.20;;
32639;SDS011;19049;52.524;11.468;2022-12-26T13:24:34;2.83;;;2.60;;
32639;SDS011;19049;52.524;11.468;2022-12-26T13:27:26;2.90;;;2.60;;
32639;SDS011;19049;52.524;11.468;2022-12-26T13:29:53;2.80;;;2.43;;
32639;SDS011;19049;52.524;11.468;2022-12-26T13:32:21;3.53;;;2.90;;
32639;SDS011;19049;52.524;11.468;2022-12-26T13:35:04;3.83;;;3.13;;
32639;SDS011;19049;52.524;11.468;2022-12-26T13:42:43;2.83;;;2.40;;
32639;SDS011;19049;52.524;11.468;2022-12-26T13:48:53;2.53;;;2.33;;
32639;SDS011;19049;52.524;11.468;2022-12-26T13:56:02;2.23;;;2.00;;
32639;SDS011;19049;52.524;11.468;2022-12-26T14:06:56;2.90;;;2.27;;
32639;SDS011;19049;52.524;11.468;2022-12-26T14:19:48;3.00;;;1.90;;
32639;SDS011;19049;52.524;11.468;2022-12-26T14:22:41;2.57;;;1.83;;
32639;SDS011;19049;52.524;11.468;2022-12-26T14:28:21;2.07;;;1.87;;
32639;SDS011;19049;52.524;11.468;2022-12-26T14:33:37;2.00;;;1.90;;
32639;SDS011;19049;52.524;11.468;2022-12-26T14:41:34;2.10;;;2.00;;
32639;SDS011;19049;52.524;11.468;2022-12-26T15:17:28;4.70;;;2.97;;
32639;SDS011;19049;52.524;11.468;2022-12-26T15:22:41;3.87;;;2.83;;
32639;SDS011;19049;52.524;11.468;2022-12-26T15:25:38;5.23;;;2.73;;
32639;SDS011;19049;52.524;11.468;2022-12-26T15:31:12;3.67;;;2.10;;
32639;SDS011;19049;52.524;11.468;2022-12-26T15:33:56;2.33;;;1.80;;
32639;SDS011;19049;52.524;11.468;2022-12-26T15:39:15;3.17;;;1.30;;
32639;SDS011;19049;52.524;11.468;2022-12-26T15:41:51;1.83;;;1.23;;
32639;SDS011;19049;52.524;11.468;2022-12-26T15:47:36;1.43;;;0.90;;
32639;SDS011;19049;52.524;11.468;2022-12-26T15:50:28;1.03;;;0.87;;
32639;SDS011;19049;52.524;11.468;2022-12-26T15:53:07;0.80;;;0.80;;
32639;SDS011;19049;52.524;11.468;2022-12-26T16:01:02;2.80;;;1.00;;
32639;SDS011;19049;52.524;11.468;2022-12-26T16:06:30;3.30;;;1.50;;
32639;SDS011;19049;52.524;11.468;2022-12-26T16:11:44;2.90;;;1.73;;
32639;SDS011;19049;52.524;11.468;2022-12-26T16:14:33;2.03;;;1.40;;
32639;SDS011;19049;52.524;11.468;2022-12-26T16:19:38;1.60;;;1.50;;
32639;SDS011;19049;52.524;11.468;2022-12-26T16:22:05;3.40;;;2.10;;
32639;SDS011;19049;52.524;11.468;2022-12-26T16:24:54;3.33;;;2.20;;
32639;SDS011;19049;52.524;11.468;2022-12-26T16:27:21;4.07;;;2.63;;
32639;SDS011;19049;52.524;11.468;2022-12-26T16:29:49;4.63;;;2.80;;
32639;SDS011;19049;52.524;11.468;2022-12-26T16:32:34;5.53;;;3.10;;
32639;SDS011;19049;52.524;11.468;2022-12-26T16:35:03;5.43;;;3.83;;
32639;SDS011;19049;52.524;11.468;2022-12-26T16:37:30;4.60;;;3.20;;
32639;SDS011;19049;52.524;11.468;2022-12-26T16:40:31;2.90;;;2.13;;
32639;SDS011;19049;52.524;11.468;2022-12-26T16:43:26;3.87;;;2.57;;
32639;SDS011;19049;52.524;11.468;2022-12-26T16:45:55;5.30;;;2.80;;
32639;SDS011;19049;52.524;11.468;2022-12-26T16:48:27;6.03;;;3.30;;
32639;SDS011;19049;52.524;11.468;2022-12-26T16:50:59;5.40;;;4.20;;
32639;SDS011;19049;52.524;11.468;2022-12-26T16:56:14;4.87;;;3.10;;
32639;SDS011;19049;52.524;11.468;2022-12-26T16:59:14;3.00;;;2.23;;
32639;SDS011;19049;52.524;11.468;2022-12-26T17:01:49;3.20;;;2.40;;
32639;SDS011;19049;52.524;11.468;2022-12-26T17:04:19;3.20;;;2.03;;
32639;SDS011;19049;52.524;11.468;2022-12-26T17:06:50;6.37;;;2.77;;
32639;SDS011;19049;52.524;11.468;2022-12-26T17:09:16;2.83;;;1.73;;
32639;SDS011;19049;52.524;11.468;2022-12-26T17:12:05;2.80;;;1.60;;
32639;SDS011;19049;52.524;11.468;2022-12-26T17:14:36;4.40;;;1.93;;
32639;SDS011;19049;52.524;11.468;2022-12-26T17:17:06;2.40;;;1.53;;
32639;SDS011;19049;52.524;11.468;2022-12-26T17:19:50;2.47;;;1.23;;
32639;SDS011;19049;52.524;11.468;2022-12-26T17:22:26;2.30;;;1.07;;
32639;SDS011;19049;52.524;11.468;2022-12-26T17:46:43;1.60;;;1.30;;
32639;SDS011;19049;52.524;11.468;2022-12-26T17:55:34;4.80;;;2.10;;
32639;SDS011;19049;52.524;11.468;2022-12-26T17:58:09;2.93;;;1.80;;
32639;SDS011;19049;52.524;11.468;2022-12-26T18:08:04;3.07;;;1.17;;
32639;SDS011;19049;52.524;11.468;2022-12-26T18:38:43;3.90;;;1.53;;
32639;SDS011;19049;52.524;11.468;2022-12-26T18:41:13;3.97;;;1.90;;
32639;SDS011;19049;52.524;11.468;2022-12-26T18:43:40;4.73;;;1.57;;
32639;SDS011;19049;52.524;11.468;2022-12-26T18:46:14;4.50;;;1.40;;
32639;SDS011;19049;52.524;11.468;2022-12-26T18:48:47;3.60;;;1.57;;
32639;SDS011;19049;52.524;11.468;2022-12-26T18:51:16;4.90;;;1.67;;
32639;SDS011;19049;52.524;11.468;2022-12-26T18:53:41;3.20;;;1.30;;
32639;SDS011;19049;52.524;11.468;2022-12-26T18:56:11;5.17;;;1.57;;
32639;SDS011;19049;52.524;11.468;2022-12-26T18:58:39;5.53;;;1.60;;
32639;SDS011;19049;52.524;11.468;2022-12-26T19:01:04;6.27;;;1.50;;
32639;SDS011;19049;52.524;11.468;2022-12-26T19:03:30;3.43;;;1.10;;
32639;SDS011;19049;52.524;11.468;2022-12-26T19:05:55;5.63;;;2.00;;
32639;SDS011;19049;52.524;11.468;2022-12-26T19:08:21;4.17;;;1.80;;
32639;SDS011;19049;52.524;11.468;2022-12-26T19:10:47;3.67;;;1.60;;
32639;SDS011;19049;52.524;11.468;2022-12-26T19:13:13;3.83;;;1.60;;
32639;SDS011;19049;52.524;11.468;2022-12-26T19:15:42;2.37;;;1.30;;
32639;SDS011;19049;52.524;11.468;2022-12-26T19:18:09;4.40;;;1.37;;
32639;SDS011;19049;52.524;11.468;2022-12-26T19:20:35;2.57;;;1.30;;
32639;SDS011;19049;52.524;11.468;2022-12-26T19:23:03;2.77;;;1.20;;
32639;SDS011;19049;52.524;11.468;2022-12-26T19:25:29;4.10;;;1.10;;
32639;SDS011;19049;52.524;11.468;2022-12-26T19:27:55;3.23;;;1.10;;
32639;SDS011;19049;52.524;11.468;2022-12-26T19:30:21;3.00;;;1.00;;
32639;SDS011;19049;52.524;11.468;2022-12-26T19:32:59;1.47;;;0.90;;
32639;SDS011;19049;52.524;11.468;2022-12-26T19:35:25;3.07;;;1.33;;
32639;SDS011;19049;52.524;11.468;2022-12-26T19:37:58;2.43;;;1.50;;
32639;SDS011;19049;52.524;11.468;2022-12-26T19:40:23;5.13;;;1.30;;
32639;SDS011;19049;52.524;11.468;2022-12-26T19:42:49;4.10;;;1.20;;
32639;SDS011;19049;52.524;11.468;2022-12-26T19:45:15;2.10;;;1.20;;
32639;SDS011;19049;52.524;11.468;2022-12-26T19:47:41;2.87;;;0.90;;
32639;SDS011;19049;52.524;11.468;2022-12-26T19:50:07;2.37;;;0.70;;
32639;SDS011;19049;52.524;11.468;2022-12-26T19:52:34;2.37;;;0.83;;
32639;SDS011;19049;52.524;11.468;2022-12-26T19:55:03;3.93;;;0.90;;
32639;SDS011;19049;52.524;11.468;2022-12-26T19:57:30;3.43;;;0.93;;
32639;SDS011;19049;52.524;11.468;2022-12-26T19:59:56;5.77;;;1.23;;
32639;SDS011;19049;52.524;11.468;2022-12-26T20:02:21;3.03;;;1.13;;
32639;SDS011;19049;52.524;11.468;2022-12-26T20:04:47;3.77;;;1.03;;
32639;SDS011;19049;52.524;11.468;2022-12-26T20:07:22;3.67;;;0.97;;
32639;SDS011;19049;52.524;11.468;2022-12-26T20:09:48;4.13;;;1.47;;
32639;SDS011;19049;52.524;11.468;2022-12-26T20:12:13;2.53;;;1.10;;
32639;SDS011;19049;52.524;11.468;2022-12-26T20:14:42;7.67;;;1.43;;
32639;SDS011;19049;52.524;11.468;2022-12-26T20:17:10;4.27;;;1.27;;